Matlacha, Florida
Current Conditions -  °F | °C
As of 11:53 PM on Sunday 19 Oct 2014 (Local Time) from KFMY Reporting Station
Clear Clear  
Wind Chill: 22°   Ceiling: Unl
Heat Index: 22°   Visibility: 10mi
Dew Point: 18°   Wind: 7mph
Humidity: 76%   Direction: 80°E
Pressure: 30.02"   Gusts: NA
Location:  26.6904°N, 82.0304°W
Report Text: KFMY 200353Z AUTO 08006KT 10SM CLR 22/18 A3002 RMK AO2 SLP167 T02220178
Loading
Personal Weather Stations






























Interactive Weather Map
Tropical Storm Tracking
New forecast layout! Learn more

10-Day Weather Forecast

Advertisements
Track Severe Weather on mobile